createdAt,value
2017-10-09T00:00:16.271Z,20.8
2017-10-09T00:01:17.705Z,20.9
2017-10-09T00:02:18.805Z,20.8
2017-10-09T00:03:20.929Z,20.8
2017-10-09T00:04:22.723Z,20.9
2017-10-09T00:05:24.157Z,20.8
2017-10-09T00:06:25.616Z,20.8
2017-10-09T00:07:27.052Z,20.9
2017-10-09T00:08:28.153Z,20.8
2017-10-09T00:09:29.583Z,20.8
2017-10-09T00:10:31.376Z,20.9
2017-10-09T00:11:32.831Z,20.8
2017-10-09T00:12:34.959Z,20.8
2017-10-09T00:13:36.389Z,20.9
2017-10-09T00:14:37.490Z,20.8
2017-10-09T00:15:38.944Z,20.8
2017-10-09T00:16:40.410Z,20.9
2017-10-09T00:17:41.866Z,20.9
2017-10-09T00:18:43.308Z,20.8
2017-10-09T00:19:45.099Z,20.9
2017-10-09T00:20:46.888Z,20.8
2017-10-09T00:21:47.990Z,20.8
2017-10-09T00:22:49.763Z,20.9
2017-10-09T00:23:51.887Z,20.8
2017-10-09T00:24:53.322Z,20.8
2017-10-09T00:25:54.755Z,20.8
2017-10-09T00:26:55.859Z,20.8
2017-10-09T00:27:57.671Z,20.8
2017-10-09T00:28:58.773Z,20.8
2017-10-09T00:30:00.207Z,20.7
2017-10-09T00:31:02.333Z,20.8
2017-10-09T00:32:03.769Z,20.8
2017-10-09T00:33:05.578Z,20.8
2017-10-09T00:34:07.355Z,20.8
2017-10-09T00:35:09.125Z,20.8
2017-10-09T00:36:10.916Z,20.8
2017-10-09T00:37:12.703Z,20.8
2017-10-09T00:38:14.830Z,20.9
2017-10-09T00:39:16.955Z,20.8
2017-10-09T00:40:18.417Z,20.8
2017-10-09T00:41:20.211Z,20.9
2017-10-09T00:42:21.982Z,20.8
2017-10-09T00:43:24.109Z,20.8
2017-10-09T00:44:26.240Z,20.8
2017-10-09T00:45:28.034Z,20.8
2017-10-09T00:46:29.462Z,20.8
2017-10-09T00:47:30.904Z,20.8
2017-10-09T00:48:32.724Z,20.8
2017-10-09T00:49:33.826Z,20.8
2017-10-09T00:50:35.263Z,20.8
2017-10-09T00:51:36.699Z,20.8
2017-10-09T00:52:38.156Z,20.7
2017-10-09T00:53:39.947Z,20.8
2017-10-09T00:54:41.380Z,20.8
2017-10-09T00:55:42.838Z,20.8
2017-10-09T00:56:44.275Z,20.8
2017-10-09T00:57:46.400Z,20.8
2017-10-09T00:58:48.199Z,20.8
2017-10-09T00:59:50.315Z,20.8
2017-10-09T01:00:51.790Z,20.7
2017-10-09T01:01:53.581Z,20.9
2017-10-09T01:02:54.681Z,20.8
2017-10-09T01:03:56.472Z,20.8
2017-10-09T01:04:57.570Z,20.8
2017-10-09T01:05:59.361Z,20.8
2017-10-09T01:07:00.126Z,20.7
2017-10-09T01:08:02.255Z,20.7
2017-10-09T01:09:04.378Z,20.8
2017-10-09T01:10:06.173Z,20.8
2017-10-09T01:11:07.607Z,20.8
2017-10-09T01:12:09.735Z,20.7
2017-10-09T01:13:11.864Z,20.8
2017-10-09T01:14:13.658Z,20.8
2017-10-09T01:15:15.451Z,20.8
2017-10-09T01:16:17.575Z,20.8
2017-10-09T01:17:19.369Z,20.7
2017-10-09T01:18:20.470Z,20.7
2017-10-09T01:19:21.926Z,20.8
2017-10-09T01:20:23.028Z,20.8
2017-10-09T01:21:24.465Z,20.8
2017-10-09T01:22:26.254Z,20.8
2017-10-09T01:23:28.382Z,20.7
2017-10-09T01:24:29.507Z,20.8
2017-10-09T01:25:30.272Z,20.8
2017-10-09T01:26:32.065Z,20.8
2017-10-09T01:27:33.859Z,20.8
2017-10-09T01:28:35.985Z,20.8
2017-10-09T01:29:37.772Z,20.8
2017-10-09T01:30:39.900Z,20.7
2017-10-09T01:31:41.335Z,20.8
2017-10-09T01:32:43.128Z,20.8
2017-10-09T01:33:44.559Z,20.7
2017-10-09T01:34:45.996Z,20.8
2017-10-09T01:35:48.121Z,20.8
2017-10-09T01:36:49.558Z,20.8
2017-10-09T01:37:50.658Z,20.8
2017-10-09T01:38:52.448Z,20.7
2017-10-09T01:39:54.236Z,20.8
2017-10-09T01:40:56.364Z,20.8
2017-10-09T01:41:58.153Z,20.8
2017-10-09T01:42:59.925Z,20.8
2017-10-09T01:44:02.051Z,20.8
2017-10-09T01:45:03.843Z,20.8
2017-10-09T01:46:05.633Z,20.8
2017-10-09T01:47:07.406Z,20.8
2017-10-09T01:48:08.860Z,20.8
2017-10-09T01:49:10.987Z,20.7
2017-10-09T01:50:13.112Z,20.8
2017-10-09T01:51:15.238Z,20.8
2017-10-09T01:52:17.006Z,20.8
2017-10-09T01:53:19.134Z,20.7
2017-10-09T01:54:20.907Z,20.8
2017-10-09T01:55:22.340Z,20.8
2017-10-09T01:56:24.132Z,20.8
2017-10-09T01:57:25.587Z,20.8
2017-10-09T01:58:27.715Z,20.8
2017-10-09T01:59:29.152Z,20.7
2017-10-09T02:00:31.277Z,20.8
2017-10-09T02:01:33.068Z,20.7
2017-10-09T02:02:34.858Z,20.7
2017-10-09T02:03:36.989Z,20.7
2017-10-09T02:04:38.775Z,20.7
2017-10-09T02:05:40.212Z,20.8
2017-10-09T02:06:42.369Z,20.7
2017-10-09T02:07:44.159Z,20.8
2017-10-09T02:08:46.288Z,20.7
2017-10-09T02:09:48.081Z,20.7
2017-10-09T02:10:49.516Z,20.8
2017-10-09T02:11:51.643Z,20.7
2017-10-09T02:12:53.437Z,20.8
2017-10-09T02:13:55.228Z,20.6
2017-10-09T02:14:56.327Z,20.7
2017-10-09T02:15:58.115Z,20.8
2017-10-09T02:16:59.534Z,20.7
2017-10-09T02:18:00.969Z,20.7
2017-10-09T02:19:02.760Z,20.7
2017-10-09T02:20:04.219Z,20.7
2017-10-09T02:21:05.327Z,20.7
2017-10-09T02:22:07.117Z,20.7
2017-10-09T02:23:08.911Z,20.7
2017-10-09T02:24:10.369Z,20.8
2017-10-09T02:25:12.495Z,20.8
2017-10-09T02:26:13.951Z,20.7
2017-10-09T02:27:15.388Z,20.7
2017-10-09T02:28:16.840Z,20.7
2017-10-09T02:29:18.630Z,20.7
2017-10-09T02:30:20.089Z,20.8
2017-10-09T02:31:21.541Z,20.7
2017-10-09T02:32:23.673Z,20.7
2017-10-09T02:33:25.131Z,20.7
2017-10-09T02:34:27.258Z,20.7
2017-10-09T02:35:29.047Z,20.7
2017-10-09T02:36:30.837Z,20.7
2017-10-09T02:37:32.632Z,20.6
2017-10-09T02:38:34.433Z,20.8
2017-10-09T02:39:35.865Z,20.7
2017-10-09T02:40:37.655Z,20.7
2017-10-09T02:41:39.093Z,20.7
2017-10-09T02:42:41.217Z,20.7
2017-10-09T02:43:43.345Z,20.7
2017-10-09T02:44:45.134Z,20.8
2017-10-09T02:45:47.260Z,20.7
2017-10-09T02:46:49.055Z,20.7
2017-10-09T02:47:50.175Z,20.7
2017-10-09T02:48:51.966Z,20.7
2017-10-09T02:49:54.093Z,20.7
2017-10-09T02:50:55.886Z,20.7
2017-10-09T02:51:57.341Z,20.8
2017-10-09T02:52:58.779Z,20.7
2017-10-09T02:54:00.212Z,20.7
2017-10-09T02:55:00.979Z,20.8
2017-10-09T02:56:02.779Z,20.8
2017-10-09T02:57:04.213Z,20.7
2017-10-09T02:58:06.008Z,20.7
2017-10-09T02:59:07.113Z,20.7
2017-10-09T03:00:08.940Z,20.7
2017-10-09T03:01:10.374Z,20.7
2017-10-09T03:02:12.166Z,20.7
2017-10-09T03:03:14.293Z,20.7
2017-10-09T03:04:16.090Z,20.7
2017-10-09T03:05:17.527Z,20.8
2017-10-09T03:06:18.649Z,20.7
2017-10-09T03:07:19.412Z,20.7
2017-10-09T03:08:21.206Z,20.7
2017-10-09T03:09:22.661Z,20.8
2017-10-09T03:10:24.787Z,20.7
2017-10-09T03:11:26.912Z,20.7
2017-10-09T03:12:29.039Z,20.6
2017-10-09T03:13:30.811Z,20.7
2017-10-09T03:14:31.913Z,20.7
2017-10-09T03:15:33.035Z,20.7
2017-10-09T03:16:34.137Z,20.7
2017-10-09T03:17:35.575Z,20.6
2017-10-09T03:18:37.361Z,20.7
2017-10-09T03:19:39.500Z,20.6
2017-10-09T03:20:41.610Z,20.6
2017-10-09T03:21:43.380Z,20.6
2017-10-09T03:22:44.837Z,20.7
2017-10-09T03:23:46.964Z,20.6
2017-10-09T03:24:48.066Z,20.6
2017-10-09T03:25:49.835Z,20.7
2017-10-09T03:26:51.630Z,20.7
2017-10-09T03:27:53.423Z,20.7
2017-10-09T03:28:55.212Z,20.6
2017-10-09T03:29:57.340Z,20.7
2017-10-09T03:30:58.776Z,20.6
2017-10-09T03:31:59.874Z,20.7
2017-10-09T03:33:02.001Z,20.7
2017-10-09T03:34:04.126Z,20.7
2017-10-09T03:35:05.893Z,20.6
2017-10-09T03:36:07.686Z,20.6
2017-10-09T03:37:09.813Z,20.7
2017-10-09T03:38:11.585Z,20.7
2017-10-09T03:39:13.379Z,20.7
2017-10-09T03:40:15.506Z,20.7
2017-10-09T03:41:17.300Z,20.7
2017-10-09T03:42:19.070Z,20.6
2017-10-09T03:43:21.193Z,20.6
2017-10-09T03:44:22.630Z,20.7
2017-10-09T03:45:24.399Z,20.6
2017-10-09T03:46:26.205Z,20.7
2017-10-09T03:47:27.659Z,20.6
2017-10-09T03:48:29.785Z,20.7
2017-10-09T03:49:31.913Z,20.6
2017-10-09T03:50:33.706Z,20.6
2017-10-09T03:51:35.140Z,20.6
2017-10-09T03:52:37.265Z,20.6
2017-10-09T03:53:39.041Z,20.7
2017-10-09T03:54:41.169Z,20.7
2017-10-09T03:55:42.626Z,20.6
2017-10-09T03:56:44.764Z,20.6
2017-10-09T03:57:46.210Z,20.7
2017-10-09T03:58:48.338Z,20.7
2017-10-09T03:59:49.770Z,20.7
2017-10-09T04:00:51.561Z,20.7
2017-10-09T04:01:53.687Z,20.6
2017-10-09T04:02:54.457Z,20.6
2017-10-09T04:03:56.586Z,20.7
2017-10-09T04:04:58.713Z,20.7
2017-10-09T04:06:00.509Z,20.7
2017-10-09T04:07:01.966Z,20.6
2017-10-09T04:08:03.420Z,20.6
2017-10-09T04:09:05.212Z,20.7
2017-10-09T04:10:07.001Z,20.6
2017-10-09T04:11:09.133Z,20.6
2017-10-09T04:12:10.929Z,20.6
2017-10-09T04:13:12.366Z,20.6
2017-10-09T04:14:14.158Z,20.6
2017-10-09T04:15:15.929Z,20.6
2017-10-09T04:16:18.054Z,20.7
2017-10-09T04:17:19.488Z,20.6
2017-10-09T04:18:21.281Z,20.7
2017-10-09T04:19:23.071Z,20.6
2017-10-09T04:20:24.508Z,20.7
2017-10-09T04:21:25.958Z,20.6
2017-10-09T04:22:27.057Z,20.6
2017-10-09T04:23:28.853Z,20.6
2017-10-09T04:24:30.652Z,20.6
2017-10-09T04:25:32.088Z,20.7
2017-10-09T04:26:33.542Z,20.6
2017-10-09T04:27:35.670Z,20.6
2017-10-09T04:28:36.773Z,20.7
2017-10-09T04:29:38.564Z,20.6
2017-10-09T04:30:40.355Z,20.6
2017-10-09T04:31:42.148Z,20.6
2017-10-09T04:32:43.610Z,20.6
2017-10-09T04:33:45.398Z,20.6
2017-10-09T04:34:46.844Z,20.6
2017-10-09T04:35:48.301Z,20.6
2017-10-09T04:36:50.094Z,20.6
2017-10-09T04:37:51.549Z,20.6
2017-10-09T04:38:52.650Z,20.7
2017-10-09T04:39:54.779Z,20.7
2017-10-09T04:40:56.240Z,20.6
2017-10-09T04:41:58.029Z,20.6
2017-10-09T04:42:59.127Z,20.6
2017-10-09T04:44:00.586Z,20.7
2017-10-09T04:45:02.714Z,20.7
2017-10-09T04:46:04.504Z,20.7
2017-10-09T04:47:06.299Z,20.6
2017-10-09T04:48:08.090Z,20.6
2017-10-09T04:49:10.216Z,20.7
2017-10-09T04:50:11.990Z,20.7
2017-10-09T04:51:13.781Z,20.7
2017-10-09T04:52:15.573Z,20.7
2017-10-09T04:53:17.365Z,20.7
2017-10-09T04:54:18.466Z,20.6
2017-10-09T04:55:20.262Z,20.6
2017-10-09T04:56:22.385Z,20.6
2017-10-09T04:57:24.510Z,20.6
2017-10-09T04:58:25.966Z,20.6
2017-10-09T04:59:27.064Z,20.6
2017-10-09T05:00:28.519Z,20.7
2017-10-09T05:01:29.978Z,20.6
2017-10-09T05:02:30.745Z,20.7
2017-10-09T05:03:32.870Z,20.6
2017-10-09T05:04:34.659Z,20.6
2017-10-09T05:05:36.097Z,20.7
2017-10-09T05:06:37.892Z,20.6
2017-10-09T05:07:40.019Z,20.6
2017-10-09T05:08:41.812Z,20.7
2017-10-09T05:09:43.580Z,20.6
2017-10-09T05:10:45.708Z,20.7
2017-10-09T05:11:47.164Z,20.7
2017-10-09T05:12:48.935Z,20.6
2017-10-09T05:13:50.728Z,20.6
2017-10-09T05:14:51.852Z,20.7
2017-10-09T05:15:53.643Z,20.6
2017-10-09T05:16:55.078Z,20.7
2017-10-09T05:17:57.208Z,20.6
2017-10-09T05:18:58.307Z,20.6
2017-10-09T05:19:59.743Z,20.7
2017-10-09T05:21:01.198Z,20.6
2017-10-09T05:22:02.632Z,20.6
2017-10-09T05:23:04.088Z,20.7
2017-10-09T05:24:05.526Z,20.7
2017-10-09T05:25:06.983Z,20.7
2017-10-09T05:26:08.771Z,20.7
2017-10-09T05:27:10.562Z,20.6
2017-10-09T05:28:12.333Z,20.6
2017-10-09T05:29:14.140Z,20.7
2017-10-09T05:30:15.929Z,20.6
2017-10-09T05:31:17.363Z,20.6
2017-10-09T05:32:19.133Z,20.6
2017-10-09T05:33:20.571Z,20.7
2017-10-09T05:34:22.694Z,20.7
2017-10-09T05:35:24.135Z,20.6
2017-10-09T05:36:25.932Z,20.6
2017-10-09T05:37:27.729Z,20.6
2017-10-09T05:38:29.184Z,20.6
2017-10-09T05:39:31.321Z,20.7
2017-10-09T05:40:33.108Z,20.6
2017-10-09T05:41:34.899Z,20.7
2017-10-09T05:42:36.682Z,20.6
2017-10-09T05:43:38.476Z,20.6
2017-10-09T05:44:39.933Z,20.6
2017-10-09T05:45:42.071Z,20.7
2017-10-09T05:46:43.502Z,20.7
2017-10-09T05:47:45.650Z,20.6
2017-10-09T05:48:47.776Z,20.7
2017-10-09T05:49:49.211Z,20.7
2017-10-09T05:50:51.341Z,20.6
2017-10-09T05:51:53.134Z,20.7
2017-10-09T05:52:55.257Z,20.6
2017-10-09T05:53:57.031Z,20.6
2017-10-09T05:54:58.470Z,20.6
2017-10-09T05:56:00.241Z,20.6
2017-10-09T05:57:01.698Z,20.6
2017-10-09T05:58:03.493Z,20.7
2017-10-09T05:59:04.932Z,20.6
2017-10-09T06:00:06.725Z,20.6
2017-10-09T06:01:07.850Z,20.7
2017-10-09T06:02:09.309Z,20.6
2017-10-09T06:03:10.432Z,20.6
2017-10-09T06:04:12.561Z,20.6
2017-10-09T06:05:14.685Z,20.7
2017-10-09T06:06:16.814Z,20.6
2017-10-09T06:07:18.605Z,20.7
2017-10-09T06:08:20.043Z,20.6
2017-10-09T06:09:21.817Z,20.6
2017-10-09T06:10:23.606Z,20.6
2017-10-09T06:11:25.397Z,20.7
2017-10-09T06:12:26.837Z,20.7
2017-10-09T06:13:27.937Z,20.6
2017-10-09T06:14:30.066Z,20.6
2017-10-09T06:15:32.195Z,20.7
2017-10-09T06:16:33.633Z,20.7
2017-10-09T06:17:35.070Z,20.8
2017-10-09T06:18:36.526Z,20.6
2017-10-09T06:19:38.317Z,20.7
2017-10-09T06:20:40.447Z,20.7
2017-10-09T06:21:42.575Z,20.7
2017-10-09T06:22:44.348Z,20.6
2017-10-09T06:23:45.810Z,20.7
2017-10-09T06:24:47.248Z,20.7
2017-10-09T06:25:49.040Z,20.7
2017-10-09T06:26:50.860Z,20.7
2017-10-09T06:27:52.630Z,20.7
2017-10-09T06:28:54.086Z,20.7
2017-10-09T06:29:55.524Z,20.7
2017-10-09T06:30:56.965Z,20.7
2017-10-09T06:31:58.734Z,20.7
2017-10-09T06:33:00.524Z,20.7
2017-10-09T06:34:02.752Z,20.7
2017-10-09T06:35:04.543Z,20.8
2017-10-09T06:36:06.684Z,20.7
2017-10-09T06:37:08.481Z,20.7
2017-10-09T06:38:09.935Z,20.7
2017-10-09T06:39:11.373Z,20.8
2017-10-09T06:40:12.478Z,20.7
2017-10-09T06:41:13.935Z,20.7
2017-10-09T06:42:15.369Z,20.7
2017-10-09T06:43:16.807Z,20.7
2017-10-09T06:44:18.262Z,20.8
2017-10-09T06:45:20.391Z,20.8
2017-10-09T06:46:22.518Z,20.8
2017-10-09T06:47:23.953Z,20.8
2017-10-09T06:48:25.741Z,20.7
2017-10-09T06:49:27.177Z,20.8
2017-10-09T06:50:28.611Z,20.8
2017-10-09T06:51:30.387Z,20.8
2017-10-09T06:52:32.514Z,20.7
2017-10-09T06:53:34.305Z,20.8
2017-10-09T06:54:35.457Z,20.8
2017-10-09T06:55:37.251Z,20.8
2017-10-09T06:56:38.686Z,20.8
2017-10-09T06:57:40.478Z,20.8
2017-10-09T06:58:42.271Z,20.8
2017-10-09T06:59:43.727Z,20.7
2017-10-09T07:00:45.185Z,20.8
2017-10-09T07:01:47.309Z,20.8
2017-10-09T07:02:49.102Z,20.8
2017-10-09T07:03:50.895Z,20.8
2017-10-09T07:04:52.429Z,20.8
2017-10-09T07:05:53.548Z,20.8
2017-10-09T07:06:55.339Z,20.8
2017-10-09T07:07:57.468Z,20.8
2017-10-09T07:08:59.242Z,20.8
2017-10-09T07:10:01.011Z,20.8
2017-10-09T07:11:02.469Z,20.8
2017-10-09T07:12:03.903Z,20.8
2017-10-09T07:13:05.361Z,20.8
2017-10-09T07:14:06.819Z,20.8
2017-10-09T07:15:08.257Z,20.8
2017-10-09T07:16:09.361Z,20.8
2017-10-09T07:17:10.794Z,20.8
2017-10-09T07:18:12.590Z,20.8
2017-10-09T07:19:14.386Z,20.8
2017-10-09T07:20:15.839Z,20.7
2017-10-09T07:21:17.966Z,20.8
2017-10-09T07:22:19.407Z,20.8
2017-10-09T07:23:20.865Z,20.8
2017-10-09T07:24:22.331Z,20.8
2017-10-09T07:25:24.125Z,20.7
2017-10-09T07:26:25.914Z,20.8
2017-10-09T07:27:28.047Z,20.7
2017-10-09T07:28:29.487Z,20.7
2017-10-09T07:29:31.280Z,20.8
2017-10-09T07:30:33.071Z,20.8
2017-10-09T07:31:34.841Z,20.8
2017-10-09T07:32:36.634Z,20.8
2017-10-09T07:33:38.763Z,20.8
2017-10-09T07:34:40.537Z,20.8
2017-10-09T07:35:41.973Z,20.7
2017-10-09T07:36:42.742Z,20.8
2017-10-09T07:37:44.179Z,20.8
2017-10-09T07:38:45.969Z,20.8
2017-10-09T07:39:47.762Z,20.8
2017-10-09T07:40:49.215Z,20.8
2017-10-09T07:41:51.012Z,20.7
2017-10-09T07:42:52.495Z,20.8
2017-10-09T07:43:53.936Z,20.8
2017-10-09T07:44:55.729Z,20.8
2017-10-09T07:45:57.165Z,20.8
2017-10-09T07:46:59.293Z,20.8
2017-10-09T07:48:01.083Z,20.9
2017-10-09T07:49:02.855Z,20.8
2017-10-09T07:50:04.297Z,20.8
2017-10-09T07:51:06.521Z,20.8
2017-10-09T07:52:08.318Z,21
2017-10-09T07:53:09.751Z,20.9
2017-10-09T07:54:11.550Z,20.9
2017-10-09T07:55:13.345Z,20.9
2017-10-09T07:56:15.474Z,20.8
2017-10-09T07:57:16.933Z,20.9
2017-10-09T07:58:18.033Z,20.9
2017-10-09T07:59:19.492Z,20.9
2017-10-09T08:00:21.623Z,20.9
2017-10-09T08:01:22.727Z,21
2017-10-09T08:02:24.166Z,20.9
2017-10-09T08:03:26.293Z,20.9
2017-10-09T08:04:28.086Z,21
2017-10-09T08:05:29.550Z,20.9
2017-10-09T08:06:31.686Z,20.9
2017-10-09T08:07:33.478Z,20.9
2017-10-09T08:08:34.913Z,21
2017-10-09T08:09:36.352Z,20.9
2017-10-09T08:10:38.143Z,20.9
2017-10-09T08:11:39.587Z,21
2017-10-09T08:12:41.378Z,20.9
2017-10-09T08:13:42.835Z,21
2017-10-09T08:14:44.963Z,20.9
2017-10-09T08:15:47.093Z,21
2017-10-09T08:16:48.883Z,21
2017-10-09T08:17:50.347Z,21
2017-10-09T08:18:52.476Z,21
2017-10-09T08:19:53.595Z,21
2017-10-09T08:20:55.022Z,21
2017-10-09T08:21:57.151Z,21
2017-10-09T08:22:58.945Z,21
2017-10-09T08:24:00.380Z,21
2017-10-09T08:25:02.179Z,21
2017-10-09T08:26:03.974Z,21
2017-10-09T08:27:05.766Z,21.1
2017-10-09T08:28:07.893Z,21.1
2017-10-09T08:29:09.329Z,21.1
2017-10-09T08:30:11.103Z,21.1
2017-10-09T08:31:12.875Z,21.1
2017-10-09T08:32:14.699Z,21.1
2017-10-09T08:33:16.489Z,21.1
2017-10-09T08:34:17.949Z,21.1
2017-10-09T08:35:19.052Z,21.1
2017-10-09T08:36:20.846Z,21.1
2017-10-09T08:37:22.975Z,21.1
2017-10-09T08:38:24.416Z,21.1
2017-10-09T08:39:26.204Z,21.2
2017-10-09T08:40:27.994Z,21.1
2017-10-09T08:41:29.791Z,21.2
2017-10-09T08:42:31.229Z,21.1
2017-10-09T08:43:32.668Z,21.2
2017-10-09T08:44:34.128Z,21.2
2017-10-09T08:45:35.905Z,21
2017-10-09T08:46:37.700Z,21.1
2017-10-09T08:47:39.549Z,21.2
2017-10-09T08:48:41.675Z,21.1
2017-10-09T08:49:43.469Z,21.1
2017-10-09T08:50:44.930Z,21.2
2017-10-09T08:51:46.396Z,21
2017-10-09T08:52:48.164Z,21.1
2017-10-09T08:53:49.958Z,21
2017-10-09T08:54:50.722Z,21
2017-10-09T08:55:52.853Z,21.1
2017-10-09T08:56:54.624Z,21.1
2017-10-09T08:57:56.165Z,21.2
2017-10-09T08:58:57.966Z,21.1
2017-10-09T09:00:00.093Z,21
2017-10-09T09:01:02.223Z,21.1
2017-10-09T09:02:03.678Z,21.1
2017-10-09T09:03:04.775Z,21.1
2017-10-09T09:04:06.907Z,21.1
2017-10-09T09:05:07.677Z,21.2
2017-10-09T09:06:09.452Z,21.2
2017-10-09T09:07:11.244Z,21.2
2017-10-09T09:08:13.370Z,21.2
2017-10-09T09:09:15.168Z,21.1
2017-10-09T09:10:16.960Z,21.2
2017-10-09T09:11:18.065Z,21.1
2017-10-09T09:12:19.164Z,21.1
2017-10-09T09:13:19.930Z,21.1
2017-10-09T09:14:21.722Z,21.1
2017-10-09T09:15:23.853Z,21.1
2017-10-09T09:16:25.314Z,21.1
2017-10-09T09:17:27.443Z,21.2
2017-10-09T09:18:28.567Z,21.1
2017-10-09T09:19:30.027Z,21.1
2017-10-09T09:20:31.819Z,21.2
2017-10-09T09:21:33.617Z,21.2
2017-10-09T09:22:35.412Z,21.2
2017-10-09T09:23:36.873Z,21.2
2017-10-09T09:24:38.344Z,21.2
2017-10-09T09:25:39.783Z,21.2
2017-10-09T09:26:41.563Z,21.2
2017-10-09T09:27:43.025Z,21.2
2017-10-09T09:28:44.821Z,21.2
2017-10-09T09:29:46.284Z,21.2
2017-10-09T09:30:48.057Z,21.2
2017-10-09T09:31:49.828Z,21.2
2017-10-09T09:32:51.282Z,21.2
2017-10-09T09:33:53.079Z,21.3
2017-10-09T09:34:54.875Z,21.3
2017-10-09T09:35:56.669Z,21.2
2017-10-09T09:36:58.461Z,21.3
2017-10-09T09:38:00.589Z,21.3
2017-10-09T09:39:02.726Z,21.3
2017-10-09T09:40:04.851Z,21.3
2017-10-09T09:41:06.310Z,21.3
2017-10-09T09:42:08.438Z,21.3
2017-10-09T09:43:10.231Z,21.3
2017-10-09T09:44:12.021Z,21.3
2017-10-09T09:45:13.815Z,21.3
2017-10-09T09:46:15.940Z,21.3
2017-10-09T09:47:17.734Z,21.3
2017-10-09T09:48:19.171Z,21.3
2017-10-09T09:49:20.627Z,21.3
2017-10-09T09:50:22.422Z,21.3
2017-10-09T09:51:24.214Z,21.3
2017-10-09T09:52:26.011Z,21.3
2017-10-09T09:53:27.855Z,21.3
2017-10-09T09:54:29.981Z,21.3
2017-10-09T09:55:31.776Z,21.3
2017-10-09T09:56:33.213Z,21.3
2017-10-09T09:57:34.322Z,21.3
2017-10-09T09:58:35.474Z,21.3
2017-10-09T09:59:36.910Z,21.3
2017-10-09T10:00:39.037Z,21.3
2017-10-09T10:01:40.831Z,21.3
2017-10-09T10:02:42.959Z,21.3
2017-10-09T10:03:44.434Z,21.3
2017-10-09T10:04:45.858Z,21.3
2017-10-09T10:05:47.656Z,21.3
2017-10-09T10:06:49.449Z,21.3
2017-10-09T10:07:51.242Z,21.3
2017-10-09T10:08:53.030Z,21.3
2017-10-09T10:09:54.491Z,21.3
2017-10-09T10:10:56.284Z,21.4
2017-10-09T10:11:57.745Z,21.3
2017-10-09T10:12:59.200Z,21.4
2017-10-09T10:14:00.995Z,21.4
2017-10-09T10:15:02.763Z,21.4
2017-10-09T10:16:03.864Z,21.3
2017-10-09T10:17:05.990Z,21.4
2017-10-09T10:18:07.790Z,21.4
2017-10-09T10:19:09.249Z,21.4
2017-10-09T10:20:11.041Z,21.5
2017-10-09T10:21:12.833Z,21.4
2017-10-09T10:22:14.958Z,21.4
2017-10-09T10:23:16.753Z,21.4
2017-10-09T10:24:18.550Z,21.4
2017-10-09T10:25:19.985Z,21.4
2017-10-09T10:26:21.424Z,21.4
2017-10-09T10:27:23.218Z,21.4
2017-10-09T10:28:25.011Z,21.4
2017-10-09T10:29:26.472Z,21.4
2017-10-09T10:30:28.250Z,21.5
2017-10-09T10:31:30.378Z,21.4
2017-10-09T10:32:31.479Z,21.4
2017-10-09T10:33:32.581Z,21.4
2017-10-09T10:34:34.710Z,21.4
2017-10-09T10:35:36.482Z,21.4
2017-10-09T10:36:38.616Z,21.4
2017-10-09T10:37:40.409Z,21.4
2017-10-09T10:38:42.183Z,21.5
2017-10-09T10:39:43.620Z,21.5
2017-10-09T10:40:45.750Z,21.4
2017-10-09T10:41:46.518Z,21.3
2017-10-09T10:42:48.310Z,21.4
2017-10-09T10:43:50.100Z,21.4
2017-10-09T10:44:51.894Z,21.4
2017-10-09T10:45:53.353Z,21.4
2017-10-09T10:46:54.815Z,21.4
2017-10-09T10:47:56.251Z,21.4
2017-10-09T10:48:57.357Z,21.4
2017-10-09T10:49:59.148Z,21.4
2017-10-09T10:51:00.252Z,21.4
2017-10-09T10:52:01.716Z,21.4
2017-10-09T10:53:03.847Z,21.4
2017-10-09T10:54:05.644Z,21.4
2017-10-09T10:55:07.434Z,21.4
2017-10-09T10:56:08.896Z,21.4
2017-10-09T10:57:10.336Z,21.4
2017-10-09T10:58:12.131Z,21.4
2017-10-09T10:59:13.589Z,21.4
2017-10-09T11:00:15.435Z,21.4
2017-10-09T11:01:16.870Z,21.5
2017-10-09T11:02:18.998Z,21.5
2017-10-09T11:03:20.795Z,21.5
2017-10-09T11:04:22.255Z,21.4
2017-10-09T11:05:24.437Z,21.5
2017-10-09T11:06:26.227Z,21.5
2017-10-09T11:07:27.665Z,21.5
2017-10-09T11:08:29.464Z,21.5
2017-10-09T11:09:31.253Z,21.5
2017-10-09T11:10:33.044Z,21.6
2017-10-09T11:11:34.819Z,21.5
2017-10-09T11:12:36.615Z,21.6
2017-10-09T11:13:38.421Z,21.5
2017-10-09T11:14:39.900Z,21.5
2017-10-09T11:15:41.690Z,21.5
2017-10-09T11:16:43.487Z,21.5
2017-10-09T11:17:45.612Z,21.5
2017-10-09T11:18:47.074Z,21.5
2017-10-09T11:19:48.846Z,21.5
2017-10-09T11:20:50.356Z,21.6
2017-10-09T11:21:52.482Z,21.6
2017-10-09T11:22:54.276Z,21.6
2017-10-09T11:23:55.734Z,21.6
2017-10-09T11:24:57.861Z,21.6
2017-10-09T11:25:58.632Z,21.5
2017-10-09T11:27:00.426Z,21.5
2017-10-09T11:28:01.862Z,21.5
2017-10-09T11:29:03.655Z,21.5
2017-10-09T11:30:05.452Z,21.5
2017-10-09T11:31:07.580Z,21.6
2017-10-09T11:32:08.685Z,21.5
2017-10-09T11:33:10.478Z,21.5
2017-10-09T11:34:12.605Z,21.5
2017-10-09T11:35:14.397Z,21.5
2017-10-09T11:36:16.191Z,21.6
2017-10-09T11:37:17.317Z,21.6
2017-10-09T11:38:19.088Z,21.6
2017-10-09T11:39:20.194Z,21.6
2017-10-09T11:40:21.651Z,21.6
2017-10-09T11:41:23.089Z,21.5
2017-10-09T11:42:24.195Z,21.6
2017-10-09T11:43:25.971Z,21.5
2017-10-09T11:44:27.761Z,21.6
2017-10-09T11:45:29.221Z,21.6
2017-10-09T11:46:31.349Z,21.5
2017-10-09T11:47:32.813Z,21.5
2017-10-09T11:48:34.939Z,21.5
2017-10-09T11:49:36.732Z,21.5
2017-10-09T11:50:38.525Z,21.6
2017-10-09T11:51:40.702Z,21.5
2017-10-09T11:52:42.143Z,21.5
2017-10-09T11:53:44.270Z,21.5
2017-10-09T11:54:45.708Z,21.5
2017-10-09T11:55:47.473Z,21.5
2017-10-09T11:56:49.603Z,21.5
2017-10-09T11:57:51.063Z,21.5
2017-10-09T11:58:52.502Z,21.5
2017-10-09T11:59:53.600Z,21.4
2017-10-09T12:00:55.395Z,21.5
2017-10-09T12:01:56.857Z,21.5
2017-10-09T12:02:58.987Z,21.5
2017-10-09T12:04:01.112Z,21.6
2017-10-09T12:05:03.242Z,21.6
2017-10-09T12:06:04.677Z,21.5
2017-10-09T12:07:06.169Z,21.6
2017-10-09T12:08:08.302Z,21.6
2017-10-09T12:09:10.430Z,21.6
2017-10-09T12:10:12.560Z,21.6
2017-10-09T12:11:14.334Z,21.5
2017-10-09T12:12:15.795Z,21.5
2017-10-09T12:13:17.233Z,21.6
2017-10-09T12:14:19.017Z,21.5
2017-10-09T12:15:20.460Z,21.5
2017-10-09T12:16:22.587Z,21.5
2017-10-09T12:17:24.715Z,21.5
2017-10-09T12:18:25.814Z,21.5
2017-10-09T12:19:27.608Z,21.5
2017-10-09T12:20:29.733Z,21.5
2017-10-09T12:21:31.857Z,21.5
2017-10-09T12:22:33.989Z,21.6
2017-10-09T12:23:35.762Z,21.6
2017-10-09T12:24:37.533Z,21.5
2017-10-09T12:25:39.326Z,21.5
2017-10-09T12:26:41.118Z,21.5
2017-10-09T12:27:42.556Z,21.5
2017-10-09T12:28:44.347Z,21.5
2017-10-09T12:29:46.146Z,21.5
2017-10-09T12:30:47.583Z,21.5
2017-10-09T12:31:49.040Z,21.6
2017-10-09T12:32:50.477Z,21.5
2017-10-09T12:33:52.272Z,21.5
2017-10-09T12:34:54.066Z,21.5
2017-10-09T12:35:55.523Z,21.5
2017-10-09T12:36:56.985Z,21.6
2017-10-09T12:37:58.429Z,21.5
2017-10-09T12:39:00.220Z,21.5
2017-10-09T12:40:02.013Z,21.5
2017-10-09T12:41:03.786Z,21.5
2017-10-09T12:42:05.913Z,21.6
2017-10-09T12:43:08.042Z,21.5
2017-10-09T12:44:09.834Z,21.6
2017-10-09T12:45:11.278Z,21.5
2017-10-09T12:46:13.404Z,21.5
2017-10-09T12:47:15.195Z,21.6
2017-10-09T12:48:16.705Z,21.6
2017-10-09T12:49:18.832Z,21.6
2017-10-09T12:50:20.629Z,21.6
2017-10-09T12:51:22.763Z,21.6
2017-10-09T12:52:24.200Z,21.6
2017-10-09T12:53:25.687Z,21.6
2017-10-09T12:54:27.133Z,21.6
2017-10-09T12:55:28.920Z,21.6
2017-10-09T12:56:30.357Z,21.6
2017-10-09T12:57:31.811Z,21.6
2017-10-09T12:58:33.605Z,21.6
2017-10-09T12:59:35.733Z,21.6
2017-10-09T13:00:37.528Z,21.6
2017-10-09T13:01:39.321Z,21.7
2017-10-09T13:02:41.453Z,21.6
2017-10-09T13:03:43.684Z,21.6
2017-10-09T13:04:45.481Z,21.6
2017-10-09T13:05:46.604Z,21.6
2017-10-09T13:06:48.044Z,21.6
2017-10-09T13:07:50.173Z,21.6
2017-10-09T13:08:51.976Z,21.6
2017-10-09T13:09:53.748Z,21.5
2017-10-09T13:10:55.183Z,21.5
2017-10-09T13:11:56.953Z,21.5
2017-10-09T13:12:58.746Z,21.7
2017-10-09T13:14:00.207Z,21.6
2017-10-09T13:15:02.005Z,21.6
2017-10-09T13:16:03.464Z,21.6
2017-10-09T13:17:04.896Z,21.6
2017-10-09T13:18:07.022Z,21.6
2017-10-09T13:19:08.800Z,21.6
2017-10-09T13:20:10.930Z,21.7
2017-10-09T13:21:12.391Z,21.6
2017-10-09T13:22:14.190Z,21.7
2017-10-09T13:23:15.987Z,21.6
2017-10-09T13:24:17.424Z,21.6
2017-10-09T13:25:19.223Z,21.7
2017-10-09T13:26:20.656Z,21.6
2017-10-09T13:27:22.447Z,21.7
2017-10-09T13:28:24.577Z,21.6
2017-10-09T13:29:25.683Z,21.7
2017-10-09T13:30:27.122Z,21.6
2017-10-09T13:31:28.560Z,21.6
2017-10-09T13:32:30.357Z,21.7
2017-10-09T13:33:32.128Z,21.6
2017-10-09T13:34:33.256Z,21.6
2017-10-09T13:35:34.712Z,21.6
2017-10-09T13:36:36.510Z,21.5
2017-10-09T13:37:37.607Z,21.6
2017-10-09T13:38:39.402Z,21.6
2017-10-09T13:39:40.836Z,21.6
2017-10-09T13:40:42.965Z,21.5
2017-10-09T13:41:45.091Z,21.6